createdAt,value
2019-01-27T00:01:32.388Z,5.15
2019-01-27T00:04:05.113Z,5.35
2019-01-27T00:06:36.363Z,4.25
2019-01-27T00:09:11.750Z,4.70
2019-01-27T00:11:42.754Z,4.75
2019-01-27T00:14:13.732Z,3.85
2019-01-27T00:16:44.866Z,3.70
2019-01-27T00:19:15.937Z,4.67
2019-01-27T00:21:47.029Z,4.70
2019-01-27T00:24:18.225Z,4.03
2019-01-27T00:26:48.992Z,3.90
2019-01-27T00:29:20.000Z,3.77
2019-01-27T00:31:50.992Z,5.30
2019-01-27T00:34:22.068Z,4.70
2019-01-27T00:36:53.058Z,3.00
2019-01-27T00:39:24.035Z,4.65
2019-01-27T00:41:54.877Z,4.62
2019-01-27T00:44:26.076Z,3.60
2019-01-27T00:46:57.182Z,4.15
2019-01-27T00:49:28.235Z,3.75
2019-01-27T00:51:59.237Z,3.95
2019-01-27T00:54:30.077Z,2.90
2019-01-27T00:57:01.058Z,3.75
2019-01-27T00:59:31.856Z,3.27
2019-01-27T01:02:02.816Z,4.40
2019-01-27T01:04:33.870Z,5.37
2019-01-27T01:07:04.973Z,3.17
2019-01-27T01:09:36.052Z,3.20
2019-01-27T01:12:07.171Z,4.47
2019-01-27T01:14:38.437Z,3.98
2019-01-27T01:17:09.589Z,2.75
2019-01-27T01:19:40.595Z,4.20
2019-01-27T01:22:11.541Z,2.87
2019-01-27T01:24:42.541Z,3.05
2019-01-27T01:27:13.731Z,2.95
2019-01-27T01:29:44.983Z,4.08
2019-01-27T01:32:15.991Z,3.47
2019-01-27T01:34:47.080Z,2.98
2019-01-27T01:37:18.201Z,2.75
2019-01-27T01:39:49.288Z,2.67
2019-01-27T01:42:20.561Z,2.50
2019-01-27T01:44:51.655Z,3.75
2019-01-27T01:47:22.680Z,4.25
2019-01-27T01:49:53.752Z,3.22
2019-01-27T01:52:24.961Z,4.03
2019-01-27T01:54:56.020Z,2.70
2019-01-27T01:57:27.284Z,2.52
2019-01-27T02:00:00.819Z,2.52
2019-01-27T02:02:31.931Z,3.30
2019-01-27T02:05:02.924Z,4.00
2019-01-27T02:07:34.006Z,3.90
2019-01-27T02:10:05.559Z,2.40
2019-01-27T02:12:36.915Z,3.98
2019-01-27T02:15:34.707Z,2.42
2019-01-27T02:18:05.503Z,2.72
2019-01-27T02:20:36.528Z,2.77
2019-01-27T02:23:07.545Z,2.67
2019-01-27T02:25:38.686Z,2.33
2019-01-27T02:28:09.792Z,2.50
2019-01-27T02:30:41.038Z,2.60
2019-01-27T02:33:12.289Z,2.30
2019-01-27T02:35:43.165Z,2.85
2019-01-27T02:38:14.205Z,3.05
2019-01-27T02:40:45.373Z,3.02
2019-01-27T02:43:16.476Z,2.37
2019-01-27T02:45:47.259Z,2.85
2019-01-27T02:48:18.534Z,3.12
2019-01-27T02:50:49.778Z,2.30
2019-01-27T02:53:20.930Z,3.90
2019-01-27T02:55:51.961Z,2.42
2019-01-27T02:58:23.113Z,2.40
2019-01-27T03:00:54.163Z,2.60
2019-01-27T03:03:25.296Z,2.77
2019-01-27T03:06:13.896Z,3.10
2019-01-27T03:08:50.989Z,2.00
2019-01-27T03:11:22.023Z,3.47
2019-01-27T03:13:53.131Z,2.10
2019-01-27T03:16:24.370Z,2.72
2019-01-27T03:18:55.551Z,2.77
2019-01-27T03:21:26.659Z,2.37
2019-01-27T03:23:57.497Z,2.95
2019-01-27T03:26:28.583Z,2.25
2019-01-27T03:28:59.646Z,2.35
2019-01-27T03:31:30.575Z,3.47
2019-01-27T03:34:01.778Z,2.00
2019-01-27T03:36:32.878Z,5.15
2019-01-27T03:39:05.339Z,2.00
2019-01-27T03:41:36.279Z,4.50
2019-01-27T03:44:07.831Z,2.00
2019-01-27T03:46:39.205Z,2.37
2019-01-27T03:49:10.484Z,2.00
2019-01-27T03:51:41.522Z,1.90
2019-01-27T03:54:12.588Z,1.90
2019-01-27T03:56:43.708Z,2.58
2019-01-27T03:59:14.933Z,3.58
2019-01-27T04:01:45.885Z,2.45
2019-01-27T04:04:16.896Z,2.17
2019-01-27T04:06:48.098Z,2.17
2019-01-27T04:09:19.345Z,2.17
2019-01-27T04:11:50.283Z,2.35
2019-01-27T04:14:21.528Z,2.62
2019-01-27T04:16:52.579Z,2.60
2019-01-27T04:19:23.846Z,2.20
2019-01-27T04:21:54.770Z,3.35
2019-01-27T04:24:25.860Z,2.20
2019-01-27T04:26:56.838Z,2.40
2019-01-27T04:29:27.876Z,2.45
2019-01-27T04:31:58.941Z,2.50
2019-01-27T04:34:29.905Z,2.75
2019-01-27T04:37:00.802Z,1.95
2019-01-27T04:39:31.818Z,2.27
2019-01-27T04:42:02.832Z,3.15
2019-01-27T04:44:33.888Z,2.85
2019-01-27T04:47:04.950Z,1.82
2019-01-27T04:49:35.898Z,4.40
2019-01-27T04:52:07.017Z,2.20
2019-01-27T04:54:38.117Z,2.77
2019-01-27T04:57:09.628Z,2.70
2019-01-27T04:59:40.769Z,1.65
2019-01-27T05:02:11.964Z,1.90
2019-01-27T05:04:43.444Z,2.12
2019-01-27T05:07:14.805Z,2.35
2019-01-27T05:09:45.863Z,2.17
2019-01-27T05:12:16.983Z,3.67
2019-01-27T05:14:48.027Z,2.50
2019-01-27T05:17:19.167Z,1.65
2019-01-27T05:19:50.387Z,2.00
2019-01-27T05:22:21.266Z,2.42
2019-01-27T05:24:52.364Z,1.85
2019-01-27T05:27:23.295Z,1.67
2019-01-27T05:29:54.380Z,1.85
2019-01-27T05:32:25.353Z,1.95
2019-01-27T05:34:56.241Z,3.15
2019-01-27T05:37:27.169Z,1.50
2019-01-27T05:40:00.414Z,1.95
2019-01-27T05:42:31.115Z,1.60
2019-01-27T05:45:02.235Z,1.70
2019-01-27T05:47:33.190Z,1.65
2019-01-27T05:50:04.290Z,1.52
2019-01-27T05:52:35.533Z,1.98
2019-01-27T05:55:06.859Z,1.75
2019-01-27T05:57:37.858Z,2.90
2019-01-27T06:00:14.370Z,1.60
2019-01-27T06:02:45.487Z,1.70
2019-01-27T06:05:16.802Z,2.02
2019-01-27T06:07:47.862Z,1.60
2019-01-27T06:10:18.931Z,1.70
2019-01-27T06:12:50.060Z,1.50
2019-01-27T06:15:21.172Z,1.75
2019-01-27T06:17:52.380Z,1.42
2019-01-27T06:20:23.514Z,2.00
2019-01-27T06:22:54.604Z,2.67
2019-01-27T06:25:26.157Z,3.12
2019-01-27T06:27:57.436Z,1.42
2019-01-27T06:30:28.526Z,1.95
2019-01-27T06:33:05.353Z,1.70
2019-01-27T06:35:36.802Z,1.75
2019-01-27T06:38:08.115Z,1.72
2019-01-27T06:40:39.173Z,1.65
2019-01-27T06:43:10.326Z,1.50
2019-01-27T06:45:41.326Z,1.65
2019-01-27T06:48:12.394Z,1.82
2019-01-27T06:50:43.511Z,3.42
2019-01-27T06:53:14.478Z,3.15
2019-01-27T06:55:45.483Z,2.17
2019-01-27T06:58:16.436Z,3.00
2019-01-27T07:01:21.325Z,2.85
2019-01-27T07:04:23.395Z,4.15
2019-01-27T07:07:13.470Z,2.70
2019-01-27T07:10:06.426Z,1.85
2019-01-27T07:12:56.835Z,1.40
2019-01-27T07:15:40.884Z,4.25
2019-01-27T07:18:34.131Z,2.00
2019-01-27T07:21:26.827Z,2.72
2019-01-27T07:24:15.760Z,2.45
2019-01-27T07:27:03.800Z,2.08
2019-01-27T07:29:55.224Z,2.77
2019-01-27T07:32:38.755Z,6.40
2019-01-27T07:35:21.980Z,13.15
2019-01-27T07:38:11.971Z,8.95
2019-01-27T07:41:20.499Z,7.08
2019-01-27T07:44:01.559Z,7.10
2019-01-27T07:46:40.607Z,5.97
2019-01-27T07:49:30.012Z,5.83
2019-01-27T07:52:28.963Z,5.67
2019-01-27T07:55:15.883Z,7.55
2019-01-27T07:58:00.864Z,13.08
2019-01-27T08:00:48.287Z,6.90
2019-01-27T08:03:34.579Z,8.18
2019-01-27T08:06:17.602Z,7.87
2019-01-27T08:09:10.472Z,5.12
2019-01-27T08:12:00.351Z,6.20
2019-01-27T08:14:43.072Z,4.30
2019-01-27T08:17:30.791Z,3.52
2019-01-27T08:20:20.808Z,6.12
2019-01-27T08:23:08.015Z,10.75
2019-01-27T08:26:03.833Z,6.22
2019-01-27T08:28:48.893Z,5.97
2019-01-27T08:31:37.661Z,5.45
2019-01-27T08:34:26.311Z,5.10
2019-01-27T08:37:14.780Z,3.17
2019-01-27T08:40:03.848Z,5.97
2019-01-27T08:43:06.600Z,4.62
2019-01-27T08:45:50.970Z,3.22
2019-01-27T08:48:21.910Z,6.42
2019-01-27T08:50:52.993Z,4.05
2019-01-27T08:53:24.231Z,3.00
2019-01-27T08:58:28.315Z,4.80
2019-01-27T09:01:06.588Z,6.25
2019-01-27T09:03:48.140Z,5.47
2019-01-27T09:06:50.221Z,3.50
2019-01-27T09:09:43.368Z,2.65
2019-01-27T09:12:31.953Z,4.40
2019-01-27T09:15:31.024Z,2.95
2019-01-27T09:18:20.914Z,2.65
2019-01-27T09:21:15.609Z,2.75
2019-01-27T09:24:08.266Z,2.85
2019-01-27T09:26:50.267Z,2.87
2019-01-27T09:29:33.811Z,2.22
2019-01-27T09:32:33.221Z,2.45
2019-01-27T09:35:18.485Z,2.70
2019-01-27T09:38:14.636Z,2.50
2019-01-27T09:41:04.801Z,2.80
2019-01-27T09:43:59.885Z,2.75
2019-01-27T09:46:55.617Z,2.08
2019-01-27T09:49:44.315Z,2.45
2019-01-27T09:52:49.658Z,2.33
2019-01-27T09:55:37.980Z,2.85
2019-01-27T09:58:27.150Z,1.87
2019-01-27T10:01:20.005Z,2.33
2019-01-27T10:04:09.170Z,2.50
2019-01-27T10:06:59.261Z,1.90
2019-01-27T10:09:48.202Z,1.90
2019-01-27T10:12:44.231Z,1.60
2019-01-27T10:15:40.724Z,2.20
2019-01-27T10:18:29.901Z,2.50
2019-01-27T10:21:19.039Z,3.17
2019-01-27T10:24:00.125Z,2.08
2019-01-27T10:26:50.735Z,1.77
2019-01-27T10:29:39.900Z,4.97
2019-01-27T10:32:28.964Z,2.83
2019-01-27T10:35:16.591Z,3.33
2019-01-27T10:38:00.646Z,2.70
2019-01-27T10:40:45.766Z,2.12
2019-01-27T10:43:22.290Z,1.67
2019-01-27T10:46:14.976Z,2.75
2019-01-27T10:48:55.128Z,2.00
2019-01-27T10:51:38.992Z,2.60
2019-01-27T10:54:27.228Z,2.67
2019-01-27T10:57:06.468Z,2.10
2019-01-27T10:59:45.887Z,3.58
2019-01-27T11:02:39.398Z,5.10
2019-01-27T11:05:30.829Z,4.15
2019-01-27T11:08:16.927Z,5.05
2019-01-27T11:11:24.738Z,5.65
2019-01-27T11:14:18.731Z,7.53
2019-01-27T11:17:14.890Z,6.80
2019-01-27T11:20:12.226Z,6.70
2019-01-27T11:23:04.015Z,10.13
2019-01-27T11:26:00.770Z,6.03
2019-01-27T11:29:00.986Z,27.07
2019-01-27T11:32:04.383Z,30.05
2019-01-27T11:34:57.278Z,20.80
2019-01-27T11:37:57.464Z,18.75
2019-01-27T11:40:50.943Z,21.75
2019-01-27T11:43:51.535Z,23.15
2019-01-27T11:46:44.281Z,21.65
2019-01-27T11:49:27.349Z,18.73
2019-01-27T11:52:03.967Z,18.40
2019-01-27T11:54:35.579Z,13.13
2019-01-27T11:57:06.857Z,15.60
2019-01-27T11:59:39.076Z,16.62
2019-01-27T12:02:10.280Z,20.10
2019-01-27T12:04:41.365Z,29.75
2019-01-27T12:07:13.204Z,20.52
2019-01-27T12:09:44.246Z,31.77
2019-01-27T12:12:15.428Z,41.90
2019-01-27T12:14:46.419Z,124.55
2019-01-27T12:17:17.502Z,111.03
2019-01-27T12:19:48.271Z,72.55
2019-01-27T12:22:19.331Z,40.88
2019-01-27T12:24:50.374Z,30.40
2019-01-27T12:27:21.517Z,28.50
2019-01-27T12:29:52.635Z,22.52
2019-01-27T12:32:23.839Z,25.62
2019-01-27T12:34:54.778Z,20.90
2019-01-27T12:37:26.528Z,19.62
2019-01-27T12:39:57.532Z,19.48
2019-01-27T12:42:29.072Z,18.67
2019-01-27T12:45:00.306Z,17.17
2019-01-27T12:47:31.386Z,17.05
2019-01-27T12:50:02.515Z,17.95
2019-01-27T12:52:33.553Z,17.52
2019-01-27T12:55:04.362Z,12.13
2019-01-27T12:57:35.395Z,11.80
2019-01-27T13:00:36.533Z,12.80
2019-01-27T13:03:07.683Z,10.85
2019-01-27T13:05:38.788Z,8.53
2019-01-27T13:08:10.224Z,6.83
2019-01-27T13:10:41.086Z,7.65
2019-01-27T13:13:12.235Z,9.70
2019-01-27T13:15:43.096Z,10.32
2019-01-27T13:18:14.096Z,12.07
2019-01-27T13:20:45.357Z,13.60
2019-01-27T13:23:16.248Z,11.83
2019-01-27T13:25:47.790Z,10.60
2019-01-27T13:28:18.822Z,8.60
2019-01-27T13:30:49.952Z,7.53
2019-01-27T13:33:20.955Z,8.05
2019-01-27T13:35:51.765Z,10.20
2019-01-27T13:38:22.637Z,5.92
2019-01-27T13:40:54.023Z,8.23
2019-01-27T13:43:25.209Z,16.57
2019-01-27T13:45:56.327Z,37.15
2019-01-27T13:48:27.541Z,6.58
2019-01-27T13:50:58.674Z,3.20
2019-01-27T13:53:29.679Z,4.53
2019-01-27T13:56:00.942Z,6.08
2019-01-27T13:58:32.043Z,5.65
2019-01-27T14:01:03.116Z,6.60
2019-01-27T14:03:34.263Z,11.53
2019-01-27T14:06:05.182Z,15.85
2019-01-27T14:08:36.387Z,6.10
2019-01-27T14:11:07.401Z,6.78
2019-01-27T14:13:38.571Z,7.80
2019-01-27T14:16:09.905Z,12.55
2019-01-27T14:18:41.341Z,6.28
2019-01-27T14:21:16.507Z,4.40
2019-01-27T14:23:45.063Z,3.95
2019-01-27T14:26:16.288Z,4.62
2019-01-27T14:28:48.078Z,4.87
2019-01-27T14:31:19.594Z,5.85
2019-01-27T14:33:50.835Z,3.15
2019-01-27T14:36:21.893Z,5.22
2019-01-27T14:38:52.911Z,3.45
2019-01-27T14:41:24.937Z,4.53
2019-01-27T14:43:56.276Z,5.08
2019-01-27T14:46:27.528Z,2.87
2019-01-27T14:48:59.178Z,3.75
2019-01-27T14:51:30.619Z,2.75
2019-01-27T14:54:01.928Z,3.10
2019-01-27T14:56:33.103Z,4.03
2019-01-27T14:59:04.496Z,3.90
2019-01-27T15:01:35.942Z,3.42
2019-01-27T15:04:07.116Z,4.65
2019-01-27T15:06:38.261Z,4.12
2019-01-27T15:09:11.857Z,4.50
2019-01-27T15:11:43.388Z,4.58
2019-01-27T15:14:14.873Z,3.85
2019-01-27T15:16:45.844Z,3.80
2019-01-27T15:19:16.817Z,3.83
2019-01-27T15:21:48.609Z,7.97
2019-01-27T15:24:19.720Z,7.17
2019-01-27T15:26:53.197Z,3.12
2019-01-27T15:29:24.423Z,4.42
2019-01-27T15:31:55.381Z,6.22
2019-01-27T15:34:26.509Z,3.52
2019-01-27T15:36:58.800Z,5.10
2019-01-27T15:39:30.551Z,3.30
2019-01-27T15:42:02.712Z,4.45
2019-01-27T15:44:34.092Z,5.03
2019-01-27T15:47:06.102Z,4.00
2019-01-27T15:49:37.771Z,2.83
2019-01-27T15:52:09.701Z,4.75
2019-01-27T15:54:43.142Z,8.03
2019-01-27T15:57:15.942Z,8.50
2019-01-27T15:59:47.006Z,4.75
2019-01-27T16:02:18.159Z,4.50
2019-01-27T16:04:49.127Z,7.15
2019-01-27T16:07:20.368Z,5.47
2019-01-27T16:09:51.687Z,5.40
2019-01-27T16:12:22.752Z,5.80
2019-01-27T16:14:53.755Z,5.58
2019-01-27T16:17:24.906Z,4.37
2019-01-27T16:19:55.806Z,3.77
2019-01-27T16:22:27.018Z,3.27
2019-01-27T16:24:58.316Z,6.33
2019-01-27T16:27:29.858Z,5.17
2019-01-27T16:30:18.411Z,4.92
2019-01-27T16:32:58.353Z,3.42
2019-01-27T16:35:29.612Z,4.22
2019-01-27T16:38:00.872Z,5.85
2019-01-27T16:40:31.945Z,4.85
2019-01-27T16:43:02.946Z,4.35
2019-01-27T16:45:34.179Z,2.95
2019-01-27T16:48:07.230Z,5.22
2019-01-27T16:50:38.562Z,3.25
2019-01-27T16:53:09.749Z,5.50
2019-01-27T16:55:40.957Z,3.83
2019-01-27T16:58:12.057Z,3.25
2019-01-27T17:00:43.225Z,4.50
2019-01-27T17:03:14.462Z,4.60
2019-01-27T17:05:45.571Z,5.40
2019-01-27T17:08:16.584Z,4.22
2019-01-27T17:10:48.299Z,2.60
2019-01-27T17:13:21.160Z,7.05
2019-01-27T17:15:52.821Z,2.85
2019-01-27T17:18:24.847Z,5.47
2019-01-27T17:20:56.722Z,3.20
2019-01-27T17:23:27.787Z,5.53
2019-01-27T17:26:00.805Z,5.42
2019-01-27T17:28:32.601Z,5.28
2019-01-27T17:31:04.193Z,3.72
2019-01-27T17:33:35.816Z,3.62
2019-01-27T17:36:08.731Z,3.67
2019-01-27T17:38:40.770Z,4.10
2019-01-27T17:41:12.584Z,3.55
2019-01-27T17:43:44.350Z,3.52
2019-01-27T17:46:16.372Z,6.00
2019-01-27T17:48:48.428Z,3.20
2019-01-27T17:51:19.536Z,4.00
2019-01-27T17:53:57.408Z,4.67
2019-01-27T17:56:28.619Z,3.12
2019-01-27T17:59:18.688Z,2.50
2019-01-27T18:02:11.858Z,4.95
2019-01-27T18:05:10.753Z,3.35
2019-01-27T18:07:58.914Z,4.58
2019-01-27T18:10:53.069Z,5.35
2019-01-27T18:13:44.776Z,5.35
2019-01-27T18:16:17.526Z,5.85
2019-01-27T18:18:49.444Z,3.95
2019-01-27T18:21:20.816Z,3.08
2019-01-27T18:23:52.004Z,5.30
2019-01-27T18:26:23.045Z,4.72
2019-01-27T18:28:54.262Z,4.47
2019-01-27T18:31:25.527Z,3.98
2019-01-27T18:33:57.114Z,4.67
2019-01-27T18:36:28.475Z,6.47
2019-01-27T18:38:59.655Z,11.85
2019-01-27T18:41:30.856Z,11.20
2019-01-27T18:44:02.089Z,5.15
2019-01-27T18:46:33.475Z,64.58
2019-01-27T18:49:04.545Z,37.42
2019-01-27T18:51:35.821Z,27.58
2019-01-27T18:54:31.747Z,22.05
2019-01-27T18:57:17.147Z,24.75
2019-01-27T19:00:05.882Z,20.97
2019-01-27T19:02:44.510Z,16.05
2019-01-27T19:05:37.773Z,12.00
2019-01-27T19:08:32.574Z,17.00
2019-01-27T19:11:22.642Z,13.72
2019-01-27T19:14:27.780Z,11.40
2019-01-27T19:17:17.777Z,10.60
2019-01-27T19:20:17.244Z,10.20
2019-01-27T19:23:06.543Z,10.15
2019-01-27T19:26:00.829Z,11.25
2019-01-27T19:29:05.882Z,8.43
2019-01-27T19:31:56.079Z,10.20
2019-01-27T19:34:39.812Z,6.83
2019-01-27T19:37:18.109Z,9.40
2019-01-27T19:40:01.804Z,8.53
2019-01-27T19:43:00.538Z,7.45
2019-01-27T19:45:56.367Z,8.03
2019-01-27T19:48:40.504Z,5.78
2019-01-27T19:51:33.568Z,8.00
2019-01-27T19:54:35.843Z,5.60
2019-01-27T19:57:19.176Z,7.35
2019-01-27T19:59:57.083Z,4.87
2019-01-27T20:02:41.749Z,5.58
2019-01-27T20:05:40.839Z,6.62
2019-01-27T20:08:37.969Z,4.35
2019-01-27T20:11:21.214Z,5.95
2019-01-27T20:14:01.252Z,4.62
2019-01-27T20:16:49.669Z,4.83
2019-01-27T20:19:37.261Z,3.85
2019-01-27T20:22:24.359Z,5.30
2019-01-27T20:25:07.307Z,5.58
2019-01-27T20:27:57.477Z,7.20
2019-01-27T20:31:02.705Z,5.97
2019-01-27T20:34:07.745Z,4.45
2019-01-27T20:37:05.115Z,5.10
2019-01-27T20:39:52.452Z,4.72
2019-01-27T20:42:45.579Z,4.22
2019-01-27T20:45:38.123Z,8.88
2019-01-27T20:48:20.253Z,9.40
2019-01-27T20:51:28.570Z,6.58
2019-01-27T20:54:21.605Z,11.83
2019-01-27T20:57:14.143Z,6.62
2019-01-27T20:59:52.669Z,10.58
2019-01-27T21:02:45.332Z,11.50
2019-01-27T21:05:29.157Z,10.15
2019-01-27T21:08:17.795Z,8.68
2019-01-27T21:11:13.628Z,5.72
2019-01-27T21:14:09.642Z,8.05
2019-01-27T21:16:58.521Z,9.28
2019-01-27T21:19:34.150Z,8.23
2019-01-27T21:22:05.263Z,4.70
2019-01-27T21:24:36.214Z,10.03
2019-01-27T21:27:07.290Z,6.55
2019-01-27T21:29:38.388Z,8.83
2019-01-27T21:32:09.341Z,4.92
2019-01-27T21:34:40.565Z,6.47
2019-01-27T21:37:11.755Z,6.90
2019-01-27T21:39:43.100Z,6.72
2019-01-27T21:42:14.166Z,5.50
2019-01-27T21:44:45.291Z,6.12
2019-01-27T21:47:16.312Z,8.30
2019-01-27T21:49:47.662Z,6.70
2019-01-27T21:52:19.651Z,6.83
2019-01-27T21:54:51.212Z,5.15
2019-01-27T21:57:22.321Z,6.87
2019-01-27T21:59:53.345Z,6.35
2019-01-27T22:02:24.523Z,4.78
2019-01-27T22:04:55.535Z,5.33
2019-01-27T22:07:26.731Z,4.28
2019-01-27T22:09:58.196Z,5.62
2019-01-27T22:12:29.830Z,5.20
2019-01-27T22:15:01.820Z,4.22
2019-01-27T22:17:33.538Z,3.35
2019-01-27T22:20:06.063Z,3.98
2019-01-27T22:22:37.951Z,4.40
2019-01-27T22:25:11.012Z,7.10
2019-01-27T22:27:44.005Z,3.83
2019-01-27T22:30:22.575Z,3.12
2019-01-27T22:32:55.343Z,3.30
2019-01-27T22:35:27.536Z,5.35
2019-01-27T22:37:59.526Z,4.33
2019-01-27T22:40:31.946Z,2.77
2019-01-27T22:43:04.402Z,6.65
2019-01-27T22:45:36.834Z,3.87
2019-01-27T22:48:09.119Z,4.67
2019-01-27T22:50:44.088Z,5.53
2019-01-27T22:53:16.484Z,4.00
2019-01-27T22:55:48.397Z,4.42
2019-01-27T22:58:20.297Z,3.95
2019-01-27T23:01:06.853Z,2.35
2019-01-27T23:03:50.158Z,4.53
2019-01-27T23:06:23.234Z,4.47
2019-01-27T23:08:55.769Z,3.33
2019-01-27T23:11:29.787Z,4.20
2019-01-27T23:14:01.073Z,3.47
2019-01-27T23:16:32.228Z,3.70
2019-01-27T23:19:02.995Z,2.83
2019-01-27T23:21:34.104Z,3.05
2019-01-27T23:24:05.080Z,4.35
2019-01-27T23:26:36.315Z,3.30
2019-01-27T23:29:07.438Z,3.08
2019-01-27T23:31:38.347Z,4.15
2019-01-27T23:34:09.452Z,3.12
2019-01-27T23:36:40.318Z,1.98
2019-01-27T23:39:11.810Z,2.55
2019-01-27T23:41:42.969Z,2.90
2019-01-27T23:44:14.213Z,5.72
2019-01-27T23:46:45.497Z,2.42
2019-01-27T23:49:16.578Z,6.80
2019-01-27T23:51:47.622Z,4.75
2019-01-27T23:54:18.855Z,5.58
2019-01-27T23:56:50.548Z,5.00
2019-01-27T23:59:22.339Z,4.72
